Time;durP1;ratioP1;P1;durP2;ratioP2;P2;SDS_P1;SDS_P2;PMS_P1;PMS_P2;Temp;Humidity;BMP_temperature;BMP_pressure;BME280_temperature;BME280_humidity;BME280_pressure;Samples;Min_cycle;Max_cycle;Signal;HPM_P1;HPM_P2
2022/09/27 00:02:15;;;;;;;5.38;2.10;;;11.50;99.90;;;;;;5133236;27;20089;-69
2022/09/27 00:04:41;;;;;;;10.30;2.65;;;11.50;99.90;;;;;;5132724;27;20088;-68
2022/09/27 00:07:06;;;;;;;6.80;2.35;;;11.50;99.90;;;;;;5133318;27;20126;-68
2022/09/27 00:09:33;;;;;;;8.75;2.00;;;11.50;99.90;;;;;;5132998;27;20074;-68
2022/09/27 00:11:58;;;;;;;6.20;1.80;;;11.40;99.90;;;;;;5133208;27;20114;-68
2022/09/27 00:14:26;;;;;;;9.50;1.90;;;11.40;99.90;;;;;;5131419;27;20043;-68
2022/09/27 00:16:52;;;;;;;9.82;1.60;;;11.40;99.90;;;;;;5131909;27;20098;-68
2022/09/27 00:19:21;;;;;;;6.30;1.80;;;11.40;99.90;;;;;;5133135;27;20074;-68
2022/09/27 00:21:48;;;;;;;10.18;1.70;;;11.40;99.90;;;;;;5132900;27;20043;-68
2022/09/27 00:24:16;;;;;;;5.47;2.00;;;11.40;99.90;;;;;;5132583;27;20035;-68
2022/09/27 00:26:43;;;;;;;4.45;1.55;;;11.40;99.90;;;;;;5133099;27;20107;-68
2022/09/27 00:29:09;;;;;;;8.82;1.52;;;11.30;99.90;;;;;;5131699;27;20039;-68
2022/09/27 00:31:36;;;;;;;8.55;1.38;;;11.30;99.90;;;;;;5132797;27;20506;-68
2022/09/27 00:34:03;;;;;;;5.22;1.35;;;11.30;99.90;;;;;;5131286;27;20046;-68
2022/09/27 00:36:30;;;;;;;5.15;1.50;;;11.30;99.90;;;;;;5132694;27;20039;-68
2022/09/27 00:38:58;;;;;;;9.00;1.55;;;11.20;99.90;;;;;;5131439;27;20035;-68
2022/09/27 00:41:32;;;;;;;5.72;1.27;;;11.20;99.90;;;;;;5131520;28;20095;-68
2022/09/27 00:44:03;;;;;;;3.47;1.65;;;11.20;99.90;;;;;;5131159;28;20035;-68
2022/09/27 00:46:49;;;;;;;5.15;1.42;;;11.20;99.90;;;;;;5132863;27;20077;-68
2022/09/27 00:49:20;;;;;;;5.72;1.50;;;11.10;99.90;;;;;;5132690;27;20035;-68
2022/09/27 00:51:53;;;;;;;6.20;1.55;;;11.10;99.90;;;;;;5132864;27;20031;-68
2022/09/27 00:54:20;;;;;;;9.95;1.67;;;11.10;99.90;;;;;;5132502;27;20039;-68
2022/09/27 00:56:47;;;;;;;9.15;1.48;;;11.10;99.90;;;;;;5132663;27;20035;-68
2022/09/27 00:59:46;;;;;;;6.93;1.50;;;11.10;99.90;;;;;;5132508;27;20043;-68
2022/09/27 01:02:12;;;;;;;2.95;1.20;;;11.10;99.90;;;;;;5127418;27;20058;-68
2022/09/27 01:04:39;;;;;;;5.60;1.70;;;11.00;99.90;;;;;;5132343;27;20035;-68
2022/09/27 01:07:05;;;;;;;6.28;1.45;;;11.00;99.90;;;;;;5131452;27;20054;-68
2022/09/27 01:09:31;;;;;;;9.23;1.98;;;11.00;99.90;;;;;;5132585;27;20383;-68
2022/09/27 01:12:21;;;;;;;4.10;1.42;;;11.00;99.90;;;;;;5132594;27;20114;-68
2022/09/27 01:15:23;;;;;;;1.40;1.30;;;11.00;99.90;;;;;;5132305;28;20104;-68
2022/09/27 01:18:20;;;;;;;4.18;1.40;;;10.90;99.90;;;;;;5130911;28;20126;-69
2022/09/27 01:21:10;;;;;;;4.90;1.10;;;11.00;99.90;;;;;;5132613;27;20038;-68
2022/09/27 01:23:54;;;;;;;3.58;1.27;;;10.90;99.90;;;;;;5132202;27;20039;-68
2022/09/27 01:26:26;;;;;;;5.93;1.58;;;10.90;99.90;;;;;;5132360;27;20395;-68
2022/09/27 01:28:57;;;;;;;2.60;1.23;;;10.90;99.90;;;;;;5135415;27;20063;-68
2022/09/27 01:31:54;;;;;;;6.27;1.30;;;10.90;99.90;;;;;;5135218;27;20043;-68
2022/09/27 01:34:55;;;;;;;3.47;1.40;;;10.90;99.90;;;;;;5135803;27;20080;-69
2022/09/27 01:37:27;;;;;;;3.45;1.35;;;10.90;99.90;;;;;;5118033;27;20051;-68
2022/09/27 01:40:23;;;;;;;5.75;1.35;;;10.90;99.90;;;;;;5134700;27;20039;-68
2022/09/27 01:43:03;;;;;;;4.38;1.45;;;10.90;99.90;;;;;;5136023;27;20043;-68
2022/09/27 01:45:36;;;;;;;2.08;1.17;;;10.80;99.90;;;;;;5135769;27;20061;-68
2022/09/27 01:48:32;;;;;;;4.43;1.50;;;10.90;99.90;;;;;;5134612;27;20053;-68
2022/09/27 01:51:08;;;;;;;4.15;2.15;;;10.80;99.90;;;;;;5132072;27;20100;-68
2022/09/27 01:53:45;;;;;;;3.88;1.42;;;10.90;99.90;;;;;;5134472;27;20053;-68
2022/09/27 01:56:32;;;;;;;5.03;1.33;;;10.90;99.90;;;;;;5135868;27;20039;-69
2022/09/27 01:59:09;;;;;;;4.45;1.10;;;10.90;99.90;;;;;;5134602;27;20042;-70
2022/09/27 02:01:37;;;;;;;3.40;1.42;;;10.90;99.90;;;;;;5135609;27;20039;-70
2022/09/27 02:04:04;;;;;;;4.18;1.10;;;10.90;99.90;;;;;;5135085;27;20082;-70
2022/09/27 02:06:34;;;;;;;3.35;1.10;;;10.90;99.90;;;;;;5134498;27;20546;-70
2022/09/27 02:09:24;;;;;;;4.72;1.10;;;10.90;99.90;;;;;;5135649;27;20042;-70
2022/09/27 02:11:55;;;;;;;2.70;1.10;;;10.90;99.90;;;;;;5119435;27;20553;-70
2022/09/27 02:14:36;;;;;;;5.53;1.25;;;10.80;99.90;;;;;;5135009;27;20035;-70
2022/09/27 02:17:07;;;;;;;1.40;1.10;;;10.90;99.90;;;;;;5135485;27;20036;-70
2022/09/27 02:19:42;;;;;;;2.30;1.00;;;10.80;99.90;;;;;;5134180;27;20051;-70
2022/09/27 02:22:23;;;;;;;4.53;1.20;;;10.80;99.90;;;;;;5133815;27;20051;-70
2022/09/27 02:24:54;;;;;;;5.30;1.10;;;10.80;99.90;;;;;;5134811;27;20395;-69
2022/09/27 02:27:49;;;;;;;3.65;1.20;;;10.80;99.90;;;;;;5133804;27;20039;-70
2022/09/27 02:30:16;;;;;;;6.43;1.60;;;10.80;99.90;;;;;;5135274;27;20082;-69
2022/09/27 02:32:42;;;;;;;4.43;2.10;;;10.80;99.90;;;;;;5134940;27;20043;-69
2022/09/27 02:35:28;;;;;;;5.82;1.38;;;10.80;99.90;;;;;;5134544;27;20047;-69
2022/09/27 02:37:55;;;;;;;4.05;1.35;;;10.80;99.90;;;;;;5133586;27;20043;-70
2022/09/27 02:40:21;;;;;;;3.95;1.20;;;10.70;99.90;;;;;;5134041;27;20110;-69
2022/09/27 02:42:47;;;;;;;3.85;1.00;;;10.70;99.90;;;;;;5133639;27;20051;-70
2022/09/27 02:45:14;;;;;;;9.05;1.48;;;10.70;99.90;;;;;;5134482;27;20039;-70
2022/09/27 02:48:07;;;;;;;3.80;1.10;;;10.70;99.90;;;;;;5134489;27;20083;-69
2022/09/27 02:50:57;;;;;;;5.55;1.20;;;10.70;99.90;;;;;;5133438;27;20047;-69
2022/09/27 02:53:45;;;;;;;4.47;1.33;;;10.60;99.90;;;;;;5133275;27;20518;-69
2022/09/27 02:56:24;;;;;;;4.55;1.33;;;10.60;99.90;;;;;;5134465;27;20043;-69
2022/09/27 02:59:21;;;;;;;4.38;1.30;;;10.70;99.90;;;;;;5134572;27;20043;-69
2022/09/27 03:02:25;;;;;;;1.23;0.98;;;10.60;99.90;;;;;;5111212;27;20135;-69
2022/09/27 03:05:06;;;;;;;5.93;1.10;;;10.50;99.90;;;;;;5132821;27;20095;-69
2022/09/27 03:07:32;;;;;;;3.55;1.17;;;10.50;99.90;;;;;;5134487;27;20070;-69
2022/09/27 03:09:58;;;;;;;5.53;1.25;;;10.50;99.90;;;;;;5134260;27;20039;-69
2022/09/27 03:12:26;;;;;;;1.65;0.90;;;10.50;99.90;;;;;;5133233;27;20495;-69
2022/09/27 03:14:59;;;;;;;4.38;1.00;;;10.50;99.90;;;;;;5133575;27;20039;-69
2022/09/27 03:17:25;;;;;;;4.65;1.00;;;10.50;99.90;;;;;;5133934;27;20072;-69
2022/09/27 03:19:50;;;;;;;1.17;1.13;;;10.50;99.90;;;;;;5132793;27;20559;-69
2022/09/27 03:22:16;;;;;;;2.88;1.05;;;10.50;99.90;;;;;;5133883;27;20043;-69
2022/09/27 03:24:42;;;;;;;7.85;1.17;;;10.40;99.90;;;;;;5133771;27;20031;-68
2022/09/27 03:27:09;;;;;;;4.00;1.00;;;10.40;99.90;;;;;;5134006;27;20114;-69
2022/09/27 03:29:35;;;;;;;7.90;1.20;;;10.40;99.90;;;;;;5132654;27;20043;-69
2022/09/27 03:32:02;;;;;;;1.10;0.93;;;10.40;99.90;;;;;;5132520;27;20486;-69
2022/09/27 03:34:28;;;;;;;3.25;1.30;;;10.40;99.90;;;;;;5133513;27;20046;-68
2022/09/27 03:36:53;;;;;;;1.25;1.10;;;10.40;99.90;;;;;;5133722;27;20035;-68
2022/09/27 03:39:19;;;;;;;2.60;1.15;;;10.40;99.90;;;;;;5133818;27;20031;-68
2022/09/27 03:41:44;;;;;;;2.17;1.25;;;10.40;99.90;;;;;;5133685;27;20042;-68
2022/09/27 03:44:10;;;;;;;4.45;1.13;;;10.40;99.90;;;;;;5133196;27;20506;-69
2022/09/27 03:46:35;;;;;;;4.88;1.17;;;10.30;99.90;;;;;;5133412;27;20042;-68
2022/09/27 03:49:01;;;;;;;2.10;1.05;;;10.40;99.90;;;;;;5133449;27;20035;-68
2022/09/27 03:51:26;;;;;;;1.48;1.00;;;10.40;99.90;;;;;;5132197;27;20043;-69
2022/09/27 03:53:52;;;;;;;1.33;1.00;;;10.30;99.90;;;;;;5133345;27;20054;-68
2022/09/27 03:56:18;;;;;;;3.67;1.02;;;10.30;99.90;;;;;;5131974;27;20043;-68
2022/09/27 03:58:43;;;;;;;2.78;1.23;;;10.30;99.90;;;;;;5131980;27;20126;-68
2022/09/27 04:01:09;;;;;;;4.05;1.00;;;10.30;99.90;;;;;;5133374;27;20114;-69
2022/09/27 04:03:35;;;;;;;2.05;0.90;;;10.30;99.90;;;;;;5133128;27;20478;-69
2022/09/27 04:06:02;;;;;;;2.38;0.90;;;10.30;99.90;;;;;;5131753;27;20164;-68
2022/09/27 04:08:28;;;;;;;2.38;1.00;;;10.30;99.90;;;;;;5133420;27;20411;-69
2022/09/27 04:10:54;;;;;;;4.30;1.10;;;10.30;99.90;;;;;;5133297;27;20140;-68
2022/09/27 04:13:20;;;;;;;4.53;1.30;;;10.30;99.90;;;;;;5131920;27;20060;-68
2022/09/27 04:15:45;;;;;;;2.60;1.30;;;10.30;99.90;;;;;;5132632;27;20510;-68
2022/09/27 04:18:11;;;;;;;4.55;1.05;;;10.30;99.90;;;;;;5131335;27;20043;-68
2022/09/27 04:20:37;;;;;;;5.63;1.35;;;10.30;99.90;;;;;;5133309;27;20147;-68
2022/09/27 04:23:03;;;;;;;1.10;1.05;;;10.30;99.90;;;;;;5131593;27;20046;-69
2022/09/27 04:25:28;;;;;;;7.65;1.13;;;10.20;99.90;;;;;;5131534;27;20042;-68
2022/09/27 04:27:54;;;;;;;3.08;1.13;;;10.30;99.90;;;;;;5132946;27;20035;-68
2022/09/27 04:30:21;;;;;;;2.25;1.13;;;10.20;99.90;;;;;;5132831;27;20567;-68
2022/09/27 04:32:47;;;;;;;2.90;1.13;;;10.20;99.90;;;;;;5132789;27;20099;-68
2022/09/27 04:37:58;;;;;;;3.65;1.05;;;10.20;99.90;;;;;;5132859;27;20043;-68
2022/09/27 04:40:23;;;;;;;2.78;1.58;;;10.20;99.90;;;;;;5132678;27;20526;-68
2022/09/27 04:42:50;;;;;;;4.43;1.33;;;10.20;99.90;;;;;;5132692;28;20046;-68
2022/09/27 04:45:16;;;;;;;2.03;1.08;;;10.20;99.90;;;;;;5132263;27;20547;-68
2022/09/27 04:47:47;;;;;;;4.60;0.98;;;10.20;99.90;;;;;;5131678;28;20248;-68
2022/09/27 04:50:13;;;;;;;3.53;1.15;;;10.20;99.90;;;;;;5132904;27;20043;-68
2022/09/27 04:52:39;;;;;;;2.17;0.85;;;10.10;99.90;;;;;;5132815;27;20042;-69
2022/09/27 04:55:06;;;;;;;4.97;1.58;;;10.20;99.90;;;;;;5150253;27;20035;-68
2022/09/27 04:57:32;;;;;;;5.65;1.10;;;10.10;99.90;;;;;;5153347;27;20829;-68
2022/09/27 04:59:59;;;;;;;5.03;1.15;;;10.20;99.90;;;;;;5153143;27;20047;-68
2022/09/27 05:02:26;;;;;;;4.82;1.17;;;10.20;99.90;;;;;;5153909;27;20051;-68
2022/09/27 05:04:52;;;;;;;2.53;1.20;;;10.20;99.90;;;;;;5155804;27;20367;-69
2022/09/27 05:07:17;;;;;;;4.65;1.33;;;10.20;99.90;;;;;;5157502;27;20040;-68
2022/09/27 05:09:44;;;;;;;6.40;1.33;;;10.20;99.90;;;;;;5157331;27;20027;-68
2022/09/27 05:12:10;;;;;;;10.43;1.30;;;10.20;99.90;;;;;;5155981;27;20087;-68
2022/09/27 05:14:36;;;;;;;1.25;0.88;;;10.20;99.90;;;;;;5156731;27;20034;-68
2022/09/27 05:17:01;;;;;;;3.97;1.27;;;10.20;99.90;;;;;;5155969;27;20087;-68
2022/09/27 05:19:27;;;;;;;3.17;1.20;;;10.20;99.90;;;;;;5157280;27;20478;-68
2022/09/27 05:21:52;;;;;;;4.55;1.45;;;10.20;99.90;;;;;;5157175;27;20498;-68
2022/09/27 05:24:20;;;;;;;4.93;1.40;;;10.20;99.90;;;;;;5156793;27;20071;-68
2022/09/27 05:26:46;;;;;;;2.10;1.20;;;10.20;99.90;;;;;;5155689;27;20043;-68
2022/09/27 05:29:12;;;;;;;2.10;1.25;;;10.20;99.90;;;;;;5155689;27;20034;-68
2022/09/27 05:31:37;;;;;;;2.03;1.92;;;10.20;99.90;;;;;;5153543;27;20026;-68
2022/09/27 05:34:03;;;;;;;3.65;1.20;;;10.10;99.90;;;;;;5152964;27;20163;-68
2022/09/27 05:36:29;;;;;;;6.00;1.40;;;10.10;99.90;;;;;;5154662;27;20121;-68
2022/09/27 05:38:55;;;;;;;3.33;1.20;;;10.10;99.90;;;;;;5156878;27;20031;-68
2022/09/27 05:41:20;;;;;;;4.22;1.17;;;10.10;99.90;;;;;;5155687;27;20038;-68
2022/09/27 05:43:46;;;;;;;0.98;0.93;;;10.10;99.90;;;;;;5155152;27;20074;-68
2022/09/27 05:46:11;;;;;;;1.70;1.10;;;10.00;99.90;;;;;;5156702;27;20035;-68
2022/09/27 05:48:37;;;;;;;3.33;1.17;;;10.00;99.90;;;;;;5156791;27;20035;-68
2022/09/27 05:51:03;;;;;;;1.00;1.00;;;10.00;99.90;;;;;;5156614;27;20042;-68
2022/09/27 05:53:29;;;;;;;3.45;1.00;;;10.00;99.90;;;;;;5156605;27;20045;-68
2022/09/27 05:55:54;;;;;;;3.17;1.00;;;10.00;99.90;;;;;;5156167;27;20468;-68
2022/09/27 05:58:20;;;;;;;2.40;1.05;;;9.90;99.90;;;;;;5156409;27;20034;-68
2022/09/27 06:00:45;;;;;;;5.65;1.20;;;9.90;99.90;;;;;;5156584;27;20047;-67
2022/09/27 06:03:13;;;;;;;5.13;1.13;;;9.90;99.90;;;;;;5156377;27;20070;-67
2022/09/27 06:05:39;;;;;;;4.35;1.10;;;9.90;99.90;;;;;;5154621;27;20045;-67
2022/09/27 06:08:08;;;;;;;4.63;1.38;;;9.90;99.90;;;;;;5155011;27;20035;-67
2022/09/27 06:10:34;;;;;;;1.38;1.17;;;9.90;99.90;;;;;;5156092;27;20376;-67
2022/09/27 06:13:06;;;;;;;2.58;1.30;;;9.90;99.90;;;;;;5156237;27;20406;-67
2022/09/27 06:15:33;;;;;;;2.67;1.30;;;9.90;99.90;;;;;;5154554;27;20118;-67
2022/09/27 06:18:14;;;;;;;3.72;1.38;;;9.90;99.90;;;;;;5155393;27;20079;-67
2022/09/27 06:20:41;;;;;;;3.22;1.35;;;9.90;99.90;;;;;;5154752;27;20490;-67
2022/09/27 06:23:09;;;;;;;2.15;1.38;;;9.80;99.90;;;;;;5156022;27;20073;-67
2022/09/27 06:25:36;;;;;;;2.70;1.30;;;9.80;99.90;;;;;;5155696;27;20062;-67
2022/09/27 06:28:02;;;;;;;2.45;1.40;;;9.90;99.90;;;;;;5154686;27;20488;-67
2022/09/27 06:30:28;;;;;;;2.80;1.30;;;9.90;99.90;;;;;;5155775;27;20082;-67
2022/09/27 06:32:59;;;;;;;4.22;1.38;;;9.90;99.90;;;;;;5155975;27;20047;-68
2022/09/27 06:35:25;;;;;;;2.85;1.15;;;9.90;99.90;;;;;;5155540;27;20383;-67
2022/09/27 06:37:52;;;;;;;3.50;1.55;;;9.90;99.90;;;;;;5155207;27;20410;-67
2022/09/27 06:40:18;;;;;;;3.90;1.80;;;10.00;99.90;;;;;;5155527;27;20039;-67
2022/09/27 06:42:44;;;;;;;3.42;1.27;;;10.00;99.90;;;;;;5155426;27;20069;-66
2022/09/27 06:45:10;;;;;;;1.95;1.35;;;10.00;99.90;;;;;;5155369;27;20397;-67
2022/09/27 06:47:37;;;;;;;7.43;1.77;;;10.00;99.90;;;;;;5155472;27;20498;-67
2022/09/27 06:50:04;;;;;;;6.65;1.50;;;10.00;99.90;;;;;;5155499;27;20043;-67
2022/09/27 06:52:30;;;;;;;3.25;1.40;;;10.10;99.90;;;;;;5154140;27;20035;-67
2022/09/27 06:54:56;;;;;;;8.13;1.70;;;10.10;99.90;;;;;;5154883;27;20383;-67
2022/09/27 07:02:52;;;;;;;6.38;1.58;;;10.20;99.90;;;;;;5144872;27;20043;-67
2022/09/27 07:05:18;;;;;;;3.95;1.45;;;10.30;99.90;;;;;;5142807;27;20037;-67
2022/09/27 07:07:45;;;;;;;4.15;1.35;;;10.30;99.90;;;;;;5144703;27;20467;-67
2022/09/27 07:10:10;;;;;;;5.15;1.63;;;10.20;99.90;;;;;;5144619;27;20043;-67
2022/09/27 07:12:36;;;;;;;4.88;1.38;;;10.30;99.90;;;;;;5143058;27;20505;-67
2022/09/27 07:15:03;;;;;;;3.83;1.33;;;10.30;99.90;;;;;;5143093;27;20599;-67
2022/09/27 07:17:28;;;;;;;5.05;1.40;;;10.30;99.90;;;;;;5143931;27;20087;-67
2022/09/27 07:19:54;;;;;;;2.80;1.42;;;10.40;99.90;;;;;;5144972;27;20118;-67
2022/09/27 07:22:20;;;;;;;3.22;1.30;;;10.40;99.90;;;;;;5142009;27;20490;-67
2022/09/27 07:24:45;;;;;;;4.85;1.50;;;10.40;99.90;;;;;;5153242;27;20155;-67
2022/09/27 07:27:11;;;;;;;3.90;1.33;;;10.40;99.90;;;;;;5154305;27;20083;-66
2022/09/27 07:29:36;;;;;;;5.53;1.50;;;10.50;99.90;;;;;;5154186;27;20042;-67
2022/09/27 07:32:03;;;;;;;3.20;1.13;;;10.50;99.90;;;;;;5142722;27;20477;-67
2022/09/27 07:34:29;;;;;;;5.68;1.77;;;10.50;99.90;;;;;;5145322;27;20039;-67
2022/09/27 07:37:02;;;;;;;3.65;1.33;;;10.50;99.90;;;;;;5151308;27;20122;-67
2022/09/27 07:39:27;;;;;;;3.28;1.20;;;10.50;99.90;;;;;;5154447;27;20047;-67
2022/09/27 07:41:53;;;;;;;6.88;1.50;;;10.60;99.90;;;;;;5154396;27;20030;-67
2022/09/27 07:44:18;;;;;;;3.03;1.30;;;10.60;99.90;;;;;;5154052;27;20039;-67
2022/09/27 07:46:44;;;;;;;6.13;1.27;;;10.70;99.90;;;;;;5154333;27;20047;-69
2022/09/27 07:49:09;;;;;;;5.05;1.40;;;10.70;99.90;;;;;;5154265;27;20464;-69
2022/09/27 07:51:35;;;;;;;2.85;0.88;;;10.80;99.90;;;;;;5154131;27;20039;-70
2022/09/27 07:54:00;;;;;;;3.58;1.08;;;10.80;99.90;;;;;;5152577;27;20042;-67
2022/09/27 07:56:27;;;;;;;4.00;0.93;;;10.80;99.90;;;;;;5154023;27;20113;-67
2022/09/27 07:58:52;;;;;;;3.15;1.20;;;10.80;99.90;;;;;;5153989;27;20049;-67
2022/09/27 08:01:18;;;;;;;4.28;1.10;;;10.80;99.90;;;;;;5154089;27;20027;-67
2022/09/27 08:03:43;;;;;;;3.65;1.10;;;10.80;99.90;;;;;;5152434;27;20064;-67
2022/09/27 08:06:11;;;;;;;3.63;0.90;;;10.90;99.90;;;;;;5154143;27;20042;-67
2022/09/27 08:08:37;;;;;;;2.05;0.93;;;10.90;99.90;;;;;;5154015;27;20049;-67
2022/09/27 08:11:14;;;;;;;5.30;1.10;;;10.90;99.90;;;;;;5152626;27;20038;-67
2022/09/27 08:13:40;;;;;;;2.50;1.20;;;11.00;99.90;;;;;;5153827;27;20038;-67
2022/09/27 08:16:06;;;;;;;3.53;1.30;;;11.00;99.90;;;;;;5153651;27;20111;-67
2022/09/27 08:18:31;;;;;;;3.40;1.20;;;11.00;99.90;;;;;;5153629;27;20693;-67
2022/09/27 08:20:58;;;;;;;6.93;1.20;;;11.10;99.90;;;;;;5153755;27;20403;-68
2022/09/27 08:23:24;;;;;;;7.75;1.60;;;11.10;99.90;;;;;;5153698;27;20078;-67
2022/09/27 08:25:53;;;;;;;5.97;1.50;;;11.00;99.90;;;;;;5151335;27;20085;-67
2022/09/27 08:28:21;;;;;;;2.97;1.30;;;11.10;99.90;;;;;;5152342;27;20050;-67
2022/09/27 08:30:48;;;;;;;3.17;1.00;;;11.20;99.90;;;;;;5153428;27;20027;-67
2022/09/27 08:33:13;;;;;;;0.90;0.88;;;11.20;99.90;;;;;;5151994;27;20459;-67
2022/09/27 08:35:39;;;;;;;1.75;1.13;;;11.20;99.90;;;;;;5152834;27;20038;-68
2022/09/27 08:38:05;;;;;;;3.85;1.38;;;11.30;99.90;;;;;;5152841;27;20124;-68
2022/09/27 08:40:45;;;;;;;5.60;1.45;;;11.30;99.90;;;;;;5144217;27;20034;-68
2022/09/27 08:43:19;;;;;;;2.65;1.10;;;11.40;99.90;;;;;;5134510;27;20044;-68
2022/09/27 08:46:09;;;;;;;3.13;1.48;;;11.50;99.90;;;;;;5132092;28;20039;-68
2022/09/27 08:48:37;;;;;;;3.30;1.20;;;11.60;99.90;;;;;;5145613;27;20525;-68
2022/09/27 08:51:05;;;;;;;1.33;1.00;;;11.70;99.90;;;;;;5153107;27;20122;-68
2022/09/27 08:53:38;;;;;;;2.33;1.00;;;11.70;99.90;;;;;;5152841;27;20054;-68
2022/09/27 08:56:07;;;;;;;5.10;0.85;;;11.70;99.90;;;;;;5153012;27;20034;-70
2022/09/27 08:59:00;;;;;;;4.00;1.05;;;11.80;99.90;;;;;;5150255;27;20058;-67
2022/09/27 09:01:26;;;;;;;4.47;1.63;;;11.90;99.90;;;;;;5148850;27;20133;-67
2022/09/27 09:03:58;;;;;;;1.70;1.02;;;11.90;99.90;;;;;;5152713;27;20145;-67
2022/09/27 09:06:29;;;;;;;7.22;0.93;;;11.90;99.90;;;;;;5152687;27;20401;-67
2022/09/27 09:09:20;;;;;;;1.30;0.88;;;11.90;99.90;;;;;;5151748;27;20043;-67
2022/09/27 09:14:50;;;;;;;1.38;0.63;;;11.80;99.90;;;;;;5131142;27;20456;-67
2022/09/27 09:17:21;;;;;;;1.95;0.80;;;11.80;99.90;;;;;;5142002;27;20115;-67
2022/09/27 09:20:15;;;;;;;2.50;1.15;;;11.70;99.90;;;;;;5140239;27;20035;-67
2022/09/27 09:22:59;;;;;;;0.90;0.70;;;11.60;99.90;;;;;;5143052;27;20043;-67
2022/09/27 09:25:45;;;;;;;1.75;0.82;;;11.60;99.90;;;;;;5145256;27;20406;-69
2022/09/27 09:28:40;;;;;;;1.67;0.90;;;11.60;99.90;;;;;;5153108;27;20046;-70
2022/09/27 09:31:40;;;;;;;2.72;1.13;;;11.50;99.90;;;;;;5152782;27;20491;-70
2022/09/27 09:34:29;;;;;;;3.67;1.40;;;11.60;99.90;;;;;;5151369;27;20111;-70
2022/09/27 09:37:18;;;;;;;3.08;1.10;;;11.70;99.90;;;;;;5151657;27;20099;-70
2022/09/27 09:40:07;;;;;;;2.15;1.13;;;11.80;99.90;;;;;;5151049;27;20529;-69
2022/09/27 09:42:45;;;;;;;2.25;1.10;;;11.90;99.90;;;;;;5133962;27;20455;-70
2022/09/27 09:45:25;;;;;;;2.85;1.10;;;12.00;99.90;;;;;;5152326;27;20045;-75
2022/09/27 09:48:00;;;;;;;2.58;1.20;;;12.00;99.90;;;;;;5134122;27;20026;-76
2022/09/27 09:50:37;;;;;;;5.93;1.05;;;12.00;99.90;;;;;;5154962;27;20041;-76
2022/09/27 09:53:15;;;;;;;3.08;1.10;;;12.00;99.90;;;;;;5136311;27;20057;-75
2022/09/27 09:55:45;;;;;;;4.20;0.80;;;12.00;99.90;;;;;;5137262;27;20042;-73
2022/09/27 09:58:28;;;;;;;4.70;1.00;;;12.00;99.90;;;;;;5156186;27;20035;-74
2022/09/27 10:00:59;;;;;;;2.78;0.80;;;12.10;99.90;;;;;;5155948;27;20034;-69
2022/09/27 10:03:25;;;;;;;0.98;0.93;;;12.10;99.90;;;;;;5155907;27;20043;-69
2022/09/27 10:05:51;;;;;;;2.38;0.90;;;12.10;99.90;;;;;;5155937;27;20147;-69
2022/09/27 10:08:19;;;;;;;1.02;0.80;;;12.10;99.90;;;;;;5154676;27;20042;-69
2022/09/27 10:10:45;;;;;;;1.73;0.82;;;12.10;99.90;;;;;;5155994;27;20080;-69
2022/09/27 10:13:21;;;;;;;1.48;0.60;;;12.10;99.90;;;;;;5154670;27;20095;-69
2022/09/27 10:16:06;;;;;;;1.98;0.80;;;12.20;99.90;;;;;;5155267;27;20042;-68
2022/09/27 10:18:34;;;;;;;0.93;0.75;;;12.20;99.90;;;;;;5156060;27;20038;-69
2022/09/27 10:21:03;;;;;;;0.75;0.70;;;12.30;99.90;;;;;;5154525;27;20077;-69
2022/09/27 10:23:28;;;;;;;0.77;0.60;;;12.30;99.90;;;;;;5154295;27;20093;-68
2022/09/27 10:26:03;;;;;;;1.05;0.85;;;12.30;99.90;;;;;;5154004;27;20509;-68
2022/09/27 10:28:38;;;;;;;0.80;0.80;;;12.40;99.90;;;;;;5137524;27;20043;-68
2022/09/27 10:31:07;;;;;;;0.60;0.60;;;12.40;99.90;;;;;;5155788;27;20035;-68
2022/09/27 10:33:34;;;;;;;1.88;0.70;;;12.40;99.90;;;;;;5154405;27;20049;-68
2022/09/27 10:36:00;;;;;;;0.70;0.60;;;12.50;99.90;;;;;;5154006;27;20042;-68
2022/09/27 10:38:36;;;;;;;1.40;0.80;;;12.50;99.90;;;;;;5155547;27;20034;-68
2022/09/27 10:41:25;;;;;;;1.05;0.75;;;12.50;99.90;;;;;;5154320;27;20049;-68
2022/09/27 10:43:51;;;;;;;1.42;0.88;;;12.60;99.90;;;;;;5155138;27;20107;-69
2022/09/27 10:46:26;;;;;;;1.98;0.95;;;12.60;99.90;;;;;;5154058;27;20096;-68
2022/09/27 10:49:27;;;;;;;1.75;0.70;;;12.70;99.90;;;;;;5155568;27;20030;-67
2022/09/27 10:51:56;;;;;;;1.83;0.60;;;12.70;99.90;;;;;;5155472;27;20038;-67
2022/09/27 10:54:23;;;;;;;0.60;0.60;;;12.70;99.90;;;;;;5155134;27;20410;-67
2022/09/27 10:57:35;;;;;;;1.23;0.98;;;12.60;99.90;;;;;;5155481;27;20049;-67
2022/09/27 11:00:03;;;;;;;1.65;0.70;;;12.70;99.90;;;;;;5068676;28;20044;-67
2022/09/27 11:02:32;;;;;;;0.88;0.88;;;12.70;99.90;;;;;;5070496;28;20076;-67
2022/09/27 11:05:28;;;;;;;1.02;0.93;;;12.70;99.90;;;;;;5091842;27;20059;-68
2022/09/27 11:08:01;;;;;;;0.70;0.70;;;12.80;99.90;;;;;;5130164;27;20068;-67
2022/09/27 11:10:32;;;;;;;2.97;0.80;;;12.80;99.90;;;;;;5134091;27;20035;-68
2022/09/27 11:13:13;;;;;;;0.73;0.70;;;12.80;99.90;;;;;;5133776;27;20459;-67
2022/09/27 11:16:07;;;;;;;4.65;0.80;;;12.90;99.90;;;;;;5133841;27;20069;-67
2022/09/27 11:18:52;;;;;;;1.08;0.65;;;12.90;99.90;;;;;;5134097;27;20075;-67
2022/09/27 11:21:44;;;;;;;3.00;0.73;;;12.90;99.90;;;;;;5134078;27;20089;-67
2022/09/27 11:24:29;;;;;;;2.40;1.17;;;13.00;99.90;;;;;;5133546;27;20039;-67
2022/09/27 11:27:43;;;;;;;1.73;0.70;;;13.10;99.90;;;;;;5152454;27;20047;-67
2022/09/27 11:30:15;;;;;;;2.15;0.95;;;13.10;99.90;;;;;;5143716;27;20035;-67
2022/09/27 11:33:06;;;;;;;2.78;0.70;;;13.00;99.90;;;;;;5142618;27;20042;-67
2022/09/27 11:35:40;;;;;;;1.38;0.52;;;12.90;99.90;;;;;;5144675;27;20062;-68
2022/09/27 11:38:19;;;;;;;1.08;0.60;;;12.80;99.90;;;;;;5141854;27;20035;-68
2022/09/27 11:41:21;;;;;;;0.95;0.73;;;12.70;99.90;;;;;;5144722;27;20031;-68
2022/09/27 11:44:00;;;;;;;2.72;0.65;;;12.60;99.90;;;;;;5141166;27;20052;-68
2022/09/27 11:46:35;;;;;;;1.05;0.52;;;12.60;99.90;;;;;;5144021;27;20047;-67
2022/09/27 11:49:27;;;;;;;2.00;0.90;;;12.70;99.90;;;;;;5143191;27;20049;-67
2022/09/27 11:52:21;;;;;;;1.20;0.55;;;12.70;99.90;;;;;;5144684;27;20443;-67
2022/09/27 11:55:19;;;;;;;1.38;0.70;;;12.80;99.90;;;;;;5143336;27;20043;-67
2022/09/27 11:57:52;;;;;;;1.33;0.85;;;12.80;99.90;;;;;;5143395;27;20062;-68
2022/09/27 12:00:46;;;;;;;2.35;0.52;;;12.90;99.90;;;;;;5135880;27;20136;-67
2022/09/27 12:03:37;;;;;;;0.55;0.52;;;12.90;99.90;;;;;;5133320;27;20081;-67
2022/09/27 12:06:17;;;;;;;0.60;0.52;;;12.90;99.90;;;;;;5132871;27;20035;-67
2022/09/27 12:09:07;;;;;;;1.70;0.60;;;12.90;99.90;;;;;;5133384;27;20035;-67
2022/09/27 12:11:49;;;;;;;0.50;0.50;;;12.90;99.90;;;;;;5133222;27;20070;-68
2022/09/27 12:14:35;;;;;;;1.58;0.60;;;12.90;99.90;;;;;;5132247;27;20039;-67
2022/09/27 12:17:06;;;;;;;2.72;0.77;;;12.90;99.90;;;;;;5132995;27;20049;-67
2022/09/27 12:19:40;;;;;;;2.88;0.80;;;12.90;99.90;;;;;;5133310;27;20077;-70
2022/09/27 12:22:12;;;;;;;0.82;0.60;;;12.80;99.90;;;;;;5142915;27;20047;-68
2022/09/27 12:24:39;;;;;;;0.50;0.50;;;12.90;99.90;;;;;;5153433;27;20039;-67
2022/09/27 12:27:18;;;;;;;0.73;0.60;;;12.90;99.90;;;;;;5153581;27;20035;-67
2022/09/27 12:29:46;;;;;;;0.65;0.55;;;12.80;99.90;;;;;;5153599;27;20038;-67
2022/09/27 12:32:23;;;;;;;0.85;0.63;;;12.90;99.90;;;;;;5151932;27;20115;-68
2022/09/27 12:35:03;;;;;;;0.80;0.60;;;12.90;99.90;;;;;;5153329;27;20042;-68
2022/09/27 12:37:36;;;;;;;0.85;0.50;;;12.90;99.90;;;;;;5153518;27;20495;-67
2022/09/27 12:40:13;;;;;;;4.13;0.60;;;12.90;99.90;;;;;;5143633;27;20072;-68
2022/09/27 12:42:41;;;;;;;1.65;0.70;;;13.00;99.90;;;;;;5138275;27;20040;-69
2022/09/27 12:45:12;;;;;;;2.83;0.50;;;13.00;99.90;;;;;;5132481;28;20126;-67
2022/09/27 12:47:53;;;;;;;4.68;0.60;;;13.00;99.90;;;;;;5132823;27;20427;-67
2022/09/27 12:50:43;;;;;;;3.28;0.98;;;13.00;99.90;;;;;;5131453;27;20047;-67
2022/09/27 12:53:25;;;;;;;3.53;1.42;;;13.10;99.90;;;;;;5143481;27;20083;-68
2022/09/27 12:56:23;;;;;;;4.50;0.93;;;13.20;99.90;;;;;;5153092;27;20046;-68
2022/09/27 12:59:33;;;;;;;2.63;0.90;;;13.20;99.90;;;;;;5153087;27;20383;-68
2022/09/27 13:02:25;;;;;;;2.58;0.88;;;13.20;99.90;;;;;;5094374;27;20082;-68
2022/09/27 13:05:09;;;;;;;2.75;0.80;;;13.20;99.90;;;;;;5152744;27;20566;-68
2022/09/27 13:08:12;;;;;;;1.55;0.60;;;13.20;99.90;;;;;;5153382;27;20171;-68
2022/09/27 13:11:11;;;;;;;1.35;0.82;;;13.20;99.90;;;;;;5153125;27;20117;-68
2022/09/27 13:13:38;;;;;;;4.68;0.90;;;13.20;99.90;;;;;;5153342;27;20114;-68
2022/09/27 13:16:05;;;;;;;3.70;0.95;;;13.30;99.90;;;;;;5130839;27;20061;-68
2022/09/27 13:19:00;;;;;;;2.25;0.88;;;13.40;99.90;;;;;;5132701;27;20043;-67
2022/09/27 13:21:50;;;;;;;2.92;0.90;;;13.40;99.90;;;;;;5132555;27;20169;-68
2022/09/27 13:24:40;;;;;;;1.73;0.80;;;13.40;99.90;;;;;;5133914;27;20483;-68
2022/09/27 13:27:39;;;;;;;1.45;0.70;;;13.40;99.90;;;;;;5135054;27;20046;-68
2022/09/27 13:30:07;;;;;;;3.10;0.77;;;13.40;99.90;;;;;;5072546;28;20059;-68
2022/09/27 13:32:34;;;;;;;1.15;0.80;;;13.40;99.90;;;;;;5072558;28;20489;-68